Kezdőlap
METAR-TAF:

METAR-TAF

Repülőterek :

Kangiqsualujjuaq, Québec, Kanada

földrajzi szélesség: 58-43N, földrajzi hosszúság: 065-59W, magasság: 60 m

Jelenlegi meteorológiai megfigyelések

A jelentés 39 perccel ezelõtt készült, 17:00 UTC
Nyugati szél 7 kt
Hőmérséklet 10°C
Páratartalom 71%
Légköri nyomás 1022 hPa
Látótávolság: 24.1 km
Kevés felhő 15000 lábon

METAR: CYLU 131700Z 27007KT 15SM FEW150 10/05 A3019 RMK AC1 SLP229

Idő: 13:39 (17:39 UTC)


TAF: hiányzik

Meteorológiai megfigyelések és előrejelzések több, mint 4000 repülőtéren (METAR és TAF jelentéseket).

A térképen piros és sárga pontok jelzik az elérhető meteorológiai állomásokat.

Mozgassa az egeret a pont fölött, hogy megjelenjen az állomás neve.

Azután kattintson az időjárási megfigyelések és előrejelzések megtekintéséhez.

A térkép megváltoztatása: kattintson a fekete keresztel jelölt zöld gombra ráközelítéshez, a vonallal jelölt zöld gombra távolításhoz, vagy a zöld nyilakra a szomszédos térképek eléréséhez.


METAR-TAF: